createdAt,value
2019-05-11T00:01:00.913Z,4.28
2019-05-11T00:02:36.615Z,4.70
2019-05-11T00:04:12.319Z,4.80
2019-05-11T00:05:48.030Z,5.00
2019-05-11T00:07:23.757Z,4.72
2019-05-11T00:08:59.469Z,4.75
2019-05-11T00:10:35.182Z,4.90
2019-05-11T00:12:12.486Z,4.60
2019-05-11T00:13:48.206Z,4.77
2019-05-11T00:15:23.903Z,4.85
2019-05-11T00:16:59.616Z,4.78
2019-05-11T00:18:35.322Z,5.03
2019-05-11T00:20:11.942Z,4.97
2019-05-11T00:21:47.657Z,4.97
2019-05-11T00:23:23.359Z,4.85
2019-05-11T00:24:59.304Z,5.17
2019-05-11T00:26:35.253Z,5.10
2019-05-11T00:28:11.008Z,5.20
2019-05-11T00:29:46.765Z,4.83
2019-05-11T00:31:22.467Z,4.43
2019-05-11T00:32:58.179Z,4.92
2019-05-11T00:34:34.236Z,4.47
2019-05-11T00:36:10.016Z,3.83
2019-05-11T00:37:45.717Z,4.30
2019-05-11T00:39:21.895Z,4.30
2019-05-11T00:40:57.654Z,4.12
2019-05-11T00:42:33.344Z,3.75
2019-05-11T00:44:09.297Z,4.07
2019-05-11T00:45:44.977Z,3.90
2019-05-11T00:47:21.075Z,4.00
2019-05-11T00:48:57.044Z,4.10
2019-05-11T00:50:39.383Z,4.10
2019-05-11T00:52:10.131Z,4.50
2019-05-11T00:53:45.826Z,4.40
2019-05-11T00:55:21.538Z,3.90
2019-05-11T00:56:57.234Z,4.10
2019-05-11T00:58:32.942Z,4.30
2019-05-11T01:00:10.152Z,5.20
2019-05-11T01:01:46.469Z,5.20
2019-05-11T01:03:22.170Z,5.43
2019-05-11T01:04:57.942Z,5.40
2019-05-11T01:06:33.635Z,5.90
2019-05-11T01:08:09.561Z,5.83
2019-05-11T01:09:45.258Z,5.92
2019-05-11T01:11:20.961Z,5.80
2019-05-11T01:12:57.513Z,5.60
2019-05-11T01:14:33.786Z,5.42
2019-05-11T01:16:09.717Z,6.03
2019-05-11T01:17:45.416Z,5.92
2019-05-11T01:19:21.115Z,5.90
2019-05-11T01:20:56.800Z,5.80
2019-05-11T01:22:32.535Z,5.58
2019-05-11T01:24:08.211Z,6.20
2019-05-11T01:25:43.907Z,5.57
2019-05-11T01:27:19.580Z,5.80
2019-05-11T01:28:55.284Z,5.90
2019-05-11T01:30:31.248Z,5.83
2019-05-11T01:32:06.941Z,6.17
2019-05-11T01:33:42.648Z,5.33
2019-05-11T01:35:18.438Z,5.27
2019-05-11T01:36:54.120Z,5.60
2019-05-11T01:38:29.823Z,5.70
2019-05-11T01:40:06.718Z,5.70
2019-05-11T01:41:42.412Z,5.37
2019-05-11T01:43:18.444Z,5.60
2019-05-11T01:44:54.141Z,6.10
2019-05-11T01:46:29.835Z,5.60
2019-05-11T01:48:05.585Z,5.97
2019-05-11T01:49:41.287Z,5.60
2019-05-11T01:51:16.976Z,5.70
2019-05-11T01:52:52.676Z,5.30
2019-05-11T01:54:28.369Z,5.63
2019-05-11T01:56:04.143Z,5.63
2019-05-11T01:57:39.835Z,5.90
2019-05-11T01:59:15.544Z,5.20
2019-05-11T02:00:51.236Z,5.70
2019-05-11T02:02:26.931Z,5.20
2019-05-11T02:04:02.634Z,5.50
2019-05-11T02:05:38.322Z,5.28
2019-05-11T02:07:14.326Z,4.80
2019-05-11T02:08:50.368Z,4.60
2019-05-11T02:10:26.418Z,5.07
2019-05-11T02:12:02.116Z,5.40
2019-05-11T02:18:01.906Z,5.20
2019-05-11T02:19:37.795Z,5.23
2019-05-11T02:21:13.375Z,4.58
2019-05-11T02:22:49.257Z,4.80
2019-05-11T02:24:24.812Z,4.80
2019-05-11T02:26:00.706Z,4.90
2019-05-11T02:27:36.213Z,5.17
2019-05-11T02:29:13.193Z,5.08
2019-05-11T02:30:48.732Z,4.47
2019-05-11T02:32:24.624Z,4.90
2019-05-11T02:34:00.210Z,4.70
2019-05-11T02:35:36.178Z,5.37
2019-05-11T02:37:11.693Z,4.97
2019-05-11T02:38:47.589Z,5.07
2019-05-11T02:40:23.337Z,5.20
2019-05-11T02:41:59.291Z,4.97
2019-05-11T02:43:34.820Z,5.12
2019-05-11T02:45:12.392Z,5.80
2019-05-11T02:46:47.917Z,5.30
2019-05-11T02:48:23.811Z,5.55
2019-05-11T02:49:59.746Z,5.45
2019-05-11T02:51:36.081Z,5.40
2019-05-11T02:53:11.612Z,5.47
2019-05-11T02:54:48.082Z,5.53
2019-05-11T02:56:23.611Z,5.92
2019-05-11T02:57:59.803Z,5.63
2019-05-11T02:59:35.336Z,6.00
2019-05-11T03:01:11.581Z,5.77
2019-05-11T03:02:47.134Z,5.60
2019-05-11T03:04:23.275Z,5.47
2019-05-11T03:05:58.817Z,5.70
2019-05-11T03:07:34.694Z,5.60
2019-05-11T03:09:10.215Z,5.70
2019-05-11T03:10:47.752Z,5.57
2019-05-11T03:12:23.269Z,5.63
2019-05-11T03:13:59.171Z,5.62
2019-05-11T03:15:35.030Z,5.77
2019-05-11T03:17:12.508Z,5.40
2019-05-11T03:18:48.039Z,5.27
2019-05-11T03:20:25.174Z,5.50
2019-05-11T03:22:00.710Z,5.22
2019-05-11T03:23:36.920Z,5.33
2019-05-11T03:25:12.443Z,5.30
2019-05-11T03:26:48.343Z,5.27
2019-05-11T03:28:23.880Z,5.58
2019-05-11T03:30:01.055Z,5.10
2019-05-11T03:31:37.009Z,5.30
2019-05-11T03:33:13.160Z,5.60
2019-05-11T03:34:50.147Z,5.50
2019-05-11T03:36:26.242Z,5.50
2019-05-11T03:38:01.777Z,5.47
2019-05-11T03:39:37.726Z,5.37
2019-05-11T03:41:13.272Z,5.07
2019-05-11T03:42:50.390Z,5.50
2019-05-11T03:44:26.204Z,4.93
2019-05-11T03:46:02.117Z,5.47
2019-05-11T03:47:37.638Z,5.53
2019-05-11T03:49:13.610Z,5.10
2019-05-11T03:50:50.248Z,5.38
2019-05-11T03:52:26.137Z,5.72
2019-05-11T03:54:01.679Z,5.75
2019-05-11T03:55:38.556Z,5.37
2019-05-11T03:57:14.076Z,5.80
2019-05-11T03:58:50.651Z,5.42
2019-05-11T04:00:26.445Z,5.30
2019-05-11T04:02:02.334Z,5.65
2019-05-11T04:03:38.104Z,5.25
2019-05-11T04:05:14.326Z,5.30
2019-05-11T04:06:50.595Z,5.42
2019-05-11T04:08:26.752Z,5.70
2019-05-11T04:10:02.318Z,5.90
2019-05-11T04:11:38.653Z,5.22
2019-05-11T04:13:14.246Z,5.00
2019-05-11T04:14:50.846Z,5.23
2019-05-11T04:16:26.387Z,5.67
2019-05-11T04:18:02.279Z,5.60
2019-05-11T04:19:37.811Z,5.50
2019-05-11T04:21:13.716Z,5.20
2019-05-11T04:22:50.485Z,5.30
2019-05-11T04:24:26.393Z,5.85
2019-05-11T04:26:02.382Z,5.03
2019-05-11T04:27:38.271Z,5.20
2019-05-11T04:29:13.788Z,5.33
2019-05-11T04:30:50.949Z,5.20
2019-05-11T04:32:26.460Z,5.33
2019-05-11T04:34:02.618Z,5.80
2019-05-11T04:35:38.152Z,5.95
2019-05-11T04:37:14.058Z,5.47
2019-05-11T04:38:50.814Z,5.43
2019-05-11T04:40:26.722Z,5.10
2019-05-11T04:42:02.285Z,5.80
2019-05-11T04:43:38.148Z,5.33
2019-05-11T04:45:14.294Z,5.77
2019-05-11T04:46:51.232Z,5.20
2019-05-11T04:48:26.775Z,5.33
2019-05-11T04:50:02.669Z,5.33
2019-05-11T04:51:38.522Z,4.80
2019-05-11T04:53:14.402Z,5.47
2019-05-11T04:54:50.965Z,5.54
2019-05-11T04:56:26.862Z,5.20
2019-05-11T04:58:02.402Z,5.08
2019-05-11T04:59:38.298Z,4.97
2019-05-11T05:01:13.836Z,4.87
2019-05-11T05:02:51.457Z,5.12
2019-05-11T05:04:27.005Z,5.30
2019-05-11T05:06:21.211Z,5.08
2019-05-11T05:07:48.003Z,5.10
2019-05-11T05:09:19.157Z,4.77
2019-05-11T05:10:58.593Z,5.40
2019-05-11T05:12:39.323Z,5.42
2019-05-11T05:14:14.890Z,5.10
2019-05-11T05:15:51.674Z,5.43
2019-05-11T05:17:28.219Z,5.50
2019-05-11T05:19:04.116Z,5.60
2019-05-11T05:20:43.538Z,4.57
2019-05-11T05:22:18.603Z,5.23
2019-05-11T05:23:54.147Z,5.27
2019-05-11T05:25:30.059Z,4.97
2019-05-11T05:27:05.702Z,4.50
2019-05-11T05:28:45.162Z,4.80
2019-05-11T05:30:19.215Z,4.53
2019-05-11T05:31:55.126Z,4.80
2019-05-11T05:33:30.936Z,4.45
2019-05-11T05:35:07.801Z,4.70
2019-05-11T05:36:43.323Z,4.80
2019-05-11T05:38:19.273Z,4.80
2019-05-11T05:39:54.810Z,5.00
2019-05-11T05:41:30.779Z,4.60
2019-05-11T05:43:06.330Z,4.47
2019-05-11T05:44:42.274Z,4.50
2019-05-11T05:46:18.021Z,4.87
2019-05-11T05:47:53.933Z,5.03
2019-05-11T05:49:29.894Z,4.33
2019-05-11T05:51:05.814Z,4.53
2019-05-11T05:52:41.385Z,4.93
2019-05-11T05:54:17.284Z,4.93
2019-05-11T05:55:53.881Z,4.63
2019-05-11T05:57:29.832Z,4.60
2019-05-11T05:59:05.330Z,4.92
2019-05-11T06:00:41.221Z,4.60
2019-05-11T06:02:17.044Z,4.80
2019-05-11T06:03:53.194Z,4.70
2019-05-11T06:05:28.799Z,4.72
2019-05-11T06:07:04.963Z,4.80
2019-05-11T06:08:43.194Z,4.63
2019-05-11T06:10:18.186Z,5.13
2019-05-11T06:11:53.741Z,4.70
2019-05-11T06:13:44.055Z,4.95
2019-05-11T06:15:10.490Z,4.70
2019-05-11T06:16:46.390Z,5.30
2019-05-11T06:18:23.116Z,5.20
2019-05-11T06:19:59.029Z,5.45
2019-05-11T06:21:34.545Z,5.22
2019-05-11T06:23:10.835Z,5.65
2019-05-11T06:24:46.445Z,5.00
2019-05-11T06:26:23.681Z,5.12
2019-05-11T06:27:59.532Z,4.90
2019-05-11T06:29:35.453Z,5.10
2019-05-11T06:31:10.977Z,4.70
2019-05-11T06:32:47.277Z,5.00
2019-05-11T06:34:23.046Z,4.43
2019-05-11T06:35:58.936Z,4.60
2019-05-11T06:37:34.821Z,4.60
2019-05-11T06:39:10.714Z,4.55
2019-05-11T06:40:46.239Z,5.03
2019-05-11T06:42:23.417Z,4.97
2019-05-11T06:44:01.963Z,5.20
2019-05-11T06:45:36.644Z,4.75
2019-05-11T06:47:12.169Z,4.87
2019-05-11T06:48:48.088Z,4.40
2019-05-11T06:50:23.616Z,4.60
2019-05-11T06:51:59.996Z,5.05
2019-05-11T06:53:35.915Z,4.70
2019-05-11T06:55:12.295Z,5.03
2019-05-11T06:56:48.226Z,5.57
2019-05-11T06:58:24.150Z,5.43
2019-05-11T06:59:59.683Z,4.75
2019-05-11T07:01:35.582Z,4.53
2019-05-11T07:03:11.112Z,4.78
2019-05-11T07:04:47.018Z,4.60
2019-05-11T07:06:26.074Z,4.20
2019-05-11T07:08:00.167Z,4.40
2019-05-11T07:09:35.705Z,4.10
2019-05-11T07:11:11.688Z,4.65
2019-05-11T07:12:47.269Z,4.57
2019-05-11T07:14:23.253Z,4.80
2019-05-11T07:15:59.848Z,4.63
2019-05-11T07:17:35.752Z,4.50
2019-05-11T07:19:11.272Z,3.90
2019-05-11T07:20:50.391Z,4.40
2019-05-11T07:22:24.723Z,4.50
2019-05-11T07:24:00.637Z,4.60
2019-05-11T07:25:36.167Z,4.30
2019-05-11T07:27:12.207Z,5.03
2019-05-11T07:28:47.764Z,4.50
2019-05-11T07:30:23.720Z,4.23
2019-05-11T07:32:05.599Z,4.47
2019-05-11T07:33:37.976Z,4.12
2019-05-11T07:35:14.640Z,4.35
2019-05-11T07:36:50.522Z,4.57
2019-05-11T07:38:27.867Z,4.50
2019-05-11T07:40:03.935Z,4.50
2019-05-11T07:41:39.724Z,5.15
2019-05-11T07:43:18.828Z,4.87
2019-05-11T07:44:53.861Z,4.70
2019-05-11T07:46:29.845Z,4.33
2019-05-11T07:48:07.923Z,4.60
2019-05-11T07:49:43.280Z,4.13
2019-05-11T07:51:18.982Z,4.60
2019-05-11T07:52:54.926Z,4.43
2019-05-11T07:54:30.481Z,4.33
2019-05-11T07:56:08.409Z,4.25
2019-05-11T07:57:48.109Z,5.03
2019-05-11T07:59:24.220Z,4.60
2019-05-11T08:00:59.750Z,4.57
2019-05-11T08:02:35.650Z,4.75
2019-05-11T08:04:11.189Z,4.57
2019-05-11T08:05:47.809Z,4.50
2019-05-11T08:07:23.546Z,4.50
2019-05-11T08:09:01.107Z,4.70
2019-05-11T08:10:39.041Z,4.63
2019-05-11T08:12:14.544Z,4.50
2019-05-11T08:13:50.078Z,4.97
2019-05-11T08:15:28.231Z,4.47
2019-05-11T08:17:03.277Z,4.10
2019-05-11T08:18:39.222Z,4.60
2019-05-11T08:20:15.030Z,4.75
2019-05-11T08:21:51.190Z,4.30
2019-05-11T08:23:28.540Z,4.70
2019-05-11T08:25:06.236Z,4.35
2019-05-11T08:26:41.768Z,5.20
2019-05-11T08:28:18.338Z,4.58
2019-05-11T08:29:54.106Z,4.80
2019-05-11T08:31:30.267Z,4.75
2019-05-11T08:33:05.787Z,4.33
2019-05-11T08:34:42.056Z,4.25
2019-05-11T08:36:18.429Z,4.37
2019-05-11T08:37:54.547Z,4.60
2019-05-11T08:39:31.292Z,4.45
2019-05-11T08:41:08.135Z,4.60
2019-05-11T08:42:43.921Z,4.37
2019-05-11T08:44:20.004Z,5.20
2019-05-11T08:45:57.710Z,4.90
2019-05-11T08:47:33.119Z,4.70
2019-05-11T08:49:08.875Z,4.50
2019-05-11T08:50:44.839Z,4.97
2019-05-11T08:52:59.536Z,5.33
2019-05-11T08:54:35.074Z,5.70
2019-05-11T08:56:13.271Z,5.62
2019-05-11T08:57:50.487Z,5.10
2019-05-11T08:59:27.888Z,5.30
2019-05-11T09:01:04.052Z,5.33
2019-05-11T09:02:40.936Z,5.20
2019-05-11T09:04:18.276Z,5.10
2019-05-11T09:05:57.728Z,5.50
2019-05-11T09:07:32.810Z,5.60
2019-05-11T09:09:09.456Z,5.75
2019-05-11T09:10:45.963Z,6.17
2019-05-11T09:12:21.870Z,5.93
2019-05-11T09:13:57.926Z,5.90
2019-05-11T09:15:38.294Z,5.80
2019-05-11T09:17:11.107Z,5.87
2019-05-11T09:18:47.966Z,5.62
2019-05-11T09:20:24.611Z,6.20
2019-05-11T09:22:03.199Z,6.37
2019-05-11T09:23:40.720Z,6.15
2019-05-11T09:25:15.443Z,6.37
2019-05-11T09:26:51.013Z,6.13
2019-05-11T09:28:29.411Z,5.40
2019-05-11T09:30:08.279Z,6.30
2019-05-11T09:31:44.536Z,5.70
2019-05-11T09:33:20.864Z,5.83
2019-05-11T09:34:58.003Z,4.93
2019-05-11T09:36:33.743Z,4.63
2019-05-11T09:38:09.647Z,5.27
2019-05-11T09:39:45.216Z,4.92
2019-05-11T09:41:22.824Z,4.63
2019-05-11T09:42:58.689Z,4.70
2019-05-11T09:44:34.640Z,4.90
2019-05-11T09:46:10.173Z,4.28
2019-05-11T09:47:47.710Z,4.33
2019-05-11T09:49:43.284Z,4.33
2019-05-11T09:51:03.747Z,4.60
2019-05-11T09:52:39.293Z,5.00
2019-05-11T09:54:15.174Z,4.75
2019-05-11T09:55:50.717Z,4.80
2019-05-11T09:57:27.638Z,5.17
2019-05-11T09:59:03.329Z,5.00
2019-05-11T10:00:39.243Z,4.57
2019-05-11T10:02:17.840Z,4.78
2019-05-11T10:03:52.389Z,5.10
2019-05-11T10:05:28.796Z,5.00
2019-05-11T10:07:04.789Z,4.83
2019-05-11T10:08:40.321Z,5.03
2019-05-11T10:10:18.615Z,4.67
2019-05-11T10:11:53.982Z,4.33
2019-05-11T10:13:29.869Z,4.43
2019-05-11T10:15:08.332Z,5.07
2019-05-11T10:16:44.674Z,4.60
2019-05-11T10:18:20.216Z,4.35
2019-05-11T10:19:58.270Z,4.70
2019-05-11T10:21:33.364Z,4.20
2019-05-11T10:23:09.254Z,5.20
2019-05-11T10:24:44.888Z,4.92
2019-05-11T10:26:20.807Z,4.70
2019-05-11T10:27:58.031Z,4.77
2019-05-11T10:29:34.187Z,5.13
2019-05-11T10:31:10.680Z,5.30
2019-05-11T10:32:48.452Z,4.62
2019-05-11T10:34:24.045Z,4.67
2019-05-11T10:36:03.129Z,4.20
2019-05-11T10:37:38.911Z,4.67
2019-05-11T10:39:18.697Z,4.37
2019-05-11T10:40:53.957Z,4.30
2019-05-11T10:42:29.868Z,4.00
2019-05-11T10:44:08.230Z,3.80
2019-05-11T10:45:44.067Z,4.15
2019-05-11T10:47:24.186Z,3.92
2019-05-11T10:49:00.976Z,3.60
2019-05-11T10:50:51.734Z,3.60
2019-05-11T10:52:28.802Z,3.50
2019-05-11T10:54:05.514Z,3.67
2019-05-11T10:55:41.763Z,3.60
2019-05-11T10:57:18.921Z,3.50
2019-05-11T10:58:55.105Z,3.60
2019-05-11T11:00:31.672Z,3.50
2019-05-11T11:02:08.100Z,3.50
2019-05-11T11:03:43.739Z,3.47
2019-05-11T11:05:19.665Z,3.10
2019-05-11T11:06:55.467Z,3.37
2019-05-11T11:08:31.349Z,3.80
2019-05-11T11:10:08.924Z,3.20
2019-05-11T11:11:44.685Z,2.93
2019-05-11T11:13:20.493Z,2.80
2019-05-11T11:14:58.552Z,3.37
2019-05-11T11:16:38.767Z,3.20
2019-05-11T11:18:11.713Z,3.47
2019-05-11T11:19:48.664Z,3.80
2019-05-11T11:21:24.735Z,3.40
2019-05-11T11:23:00.257Z,3.90
2019-05-11T11:24:37.499Z,3.40
2019-05-11T11:26:13.061Z,3.37
2019-05-11T11:27:49.313Z,3.80
2019-05-11T11:29:28.761Z,3.80
2019-05-11T11:31:04.367Z,4.10
2019-05-11T11:32:40.154Z,3.90
2019-05-11T11:34:18.564Z,4.30
2019-05-11T11:35:53.666Z,4.87
2019-05-11T11:37:29.965Z,3.95
2019-05-11T11:39:08.523Z,3.50
2019-05-11T11:40:44.596Z,3.90
2019-05-11T11:42:20.193Z,3.47
2019-05-11T11:44:04.139Z,3.70
2019-05-11T11:45:39.728Z,3.37
2019-05-11T11:47:20.962Z,3.10
2019-05-11T11:48:53.212Z,3.05
2019-05-11T11:50:29.208Z,3.47
2019-05-11T11:52:04.802Z,3.22
2019-05-11T11:53:40.709Z,3.10
2019-05-11T11:55:18.573Z,2.93
2019-05-11T11:56:54.293Z,3.27
2019-05-11T11:58:30.204Z,3.40
2019-05-11T12:00:09.222Z,3.47
2019-05-11T12:01:44.881Z,3.40
2019-05-11T12:03:21.122Z,3.50
2019-05-11T12:04:58.105Z,3.20
2019-05-11T12:06:34.279Z,3.80
2019-05-11T12:08:11.103Z,3.30
2019-05-11T12:09:48.360Z,3.27
2019-05-11T12:11:24.602Z,3.75
2019-05-11T12:13:00.716Z,3.53
2019-05-11T12:14:38.356Z,3.27
2019-05-11T12:16:14.200Z,3.40
2019-05-11T12:17:49.728Z,3.37
2019-05-11T12:19:27.916Z,3.10
2019-05-11T12:21:03.806Z,3.40
2019-05-11T12:22:39.715Z,3.30
2019-05-11T12:24:15.250Z,3.70
2019-05-11T12:25:51.164Z,3.67
2019-05-11T12:27:28.542Z,4.50
2019-05-11T12:29:04.428Z,4.10
2019-05-11T12:30:39.979Z,4.20
2019-05-11T12:32:18.529Z,4.80
2019-05-11T12:33:55.018Z,4.42
2019-05-11T12:35:30.996Z,5.00
2019-05-11T12:37:08.490Z,5.12
2019-05-11T12:38:44.230Z,5.20
2019-05-11T12:40:20.323Z,4.87
2019-05-11T12:41:58.224Z,4.60
2019-05-11T12:43:33.890Z,5.20
2019-05-11T12:45:11.637Z,5.10
2019-05-11T12:46:48.854Z,4.90
2019-05-11T12:48:28.330Z,5.30
2019-05-11T12:50:04.720Z,4.87
2019-05-11T12:51:40.615Z,4.67
2019-05-11T12:53:18.404Z,5.50
2019-05-11T12:54:54.451Z,4.73
2019-05-11T12:56:29.982Z,4.70
2019-05-11T12:58:08.349Z,4.72
2019-05-11T12:59:43.435Z,4.10
2019-05-11T13:01:19.436Z,4.50
2019-05-11T13:02:54.977Z,3.75
2019-05-11T13:04:31.243Z,4.10
2019-05-11T13:06:08.147Z,4.60
2019-05-11T13:07:44.199Z,4.20
2019-05-11T13:09:19.764Z,4.50
2019-05-11T13:10:55.645Z,4.83
2019-05-11T13:12:31.458Z,4.90
2019-05-11T13:14:08.053Z,4.20
2019-05-11T13:15:44.052Z,4.70
2019-05-11T13:17:33.064Z,4.47
2019-05-11T13:18:57.696Z,4.35
2019-05-11T13:20:34.081Z,4.43
2019-05-11T13:22:09.627Z,4.92
2019-05-11T13:23:45.550Z,5.80
2019-05-11T13:25:22.191Z,6.30
2019-05-11T13:26:59.745Z,6.70
2019-05-11T13:28:37.649Z,7.22
2019-05-11T13:30:14.531Z,8.00
2019-05-11T13:31:50.061Z,7.50
2019-05-11T13:33:27.837Z,8.10
2019-05-11T13:35:03.446Z,8.38
2019-05-11T13:36:39.336Z,8.77
2019-05-11T13:38:14.857Z,9.27
2019-05-11T13:39:51.179Z,9.60
2019-05-11T13:41:28.057Z,9.50
2019-05-11T13:43:04.138Z,8.83
2019-05-11T13:44:39.740Z,8.68
2019-05-11T13:46:18.050Z,8.67
2019-05-11T13:47:55.994Z,9.00
2019-05-11T13:49:32.628Z,9.17
2019-05-11T13:51:08.840Z,8.78
2019-05-11T13:52:44.927Z,8.27
2019-05-11T13:54:20.476Z,8.00
2019-05-11T13:55:58.519Z,7.57
2019-05-11T13:57:34.121Z,8.10
2019-05-11T13:59:13.057Z,8.47
2019-05-11T14:00:48.859Z,8.57
2019-05-11T14:02:24.771Z,8.73
2019-05-11T14:04:00.598Z,8.53
2019-05-11T14:05:37.840Z,8.40
2019-05-11T14:07:13.713Z,8.57
2019-05-11T14:08:49.900Z,8.60
2019-05-11T14:10:28.095Z,7.57
2019-05-11T14:12:03.353Z,8.33
2019-05-11T14:13:38.871Z,8.40
2019-05-11T14:15:14.990Z,8.30
2019-05-11T14:16:50.781Z,8.43
2019-05-11T14:18:28.147Z,8.83
2019-05-11T14:20:09.457Z,8.23
2019-05-11T14:21:45.420Z,7.23
2019-05-11T14:23:20.950Z,7.13
2019-05-11T14:24:58.607Z,7.33
2019-05-11T14:26:34.272Z,7.10
2019-05-11T14:28:10.489Z,6.92
2019-05-11T14:29:48.076Z,7.97
2019-05-11T14:31:23.730Z,7.47
2019-05-11T14:32:59.343Z,6.63
2019-05-11T14:34:35.482Z,7.20
2019-05-11T14:36:11.019Z,9.98
2019-05-11T14:37:48.688Z,8.43
2019-05-11T14:39:24.157Z,8.13
2019-05-11T14:41:02.006Z,8.05
2019-05-11T14:42:38.254Z,8.00
2019-05-11T14:44:14.370Z,8.43
2019-05-11T14:45:49.909Z,7.80
2019-05-11T14:47:28.315Z,8.10
2019-05-11T14:49:04.003Z,9.63
2019-05-11T14:50:40.172Z,10.13
2019-05-11T14:52:18.595Z,8.57
2019-05-11T14:53:56.623Z,8.13
2019-05-11T14:55:31.269Z,8.30
2019-05-11T14:57:08.058Z,10.28
2019-05-11T14:58:43.739Z,10.27
2019-05-11T15:00:19.792Z,10.00
2019-05-11T15:01:55.344Z,11.03
2019-05-11T15:03:31.295Z,9.53
2019-05-11T15:05:08.755Z,9.15
2019-05-11T15:06:46.254Z,8.80
2019-05-11T15:08:21.844Z,7.57
2019-05-11T15:09:58.669Z,7.20
2019-05-11T15:11:34.375Z,6.10
2019-05-11T15:13:10.609Z,5.72
2019-05-11T15:14:48.448Z,5.60
2019-05-11T15:16:23.707Z,6.53
2019-05-11T15:17:59.386Z,6.03
2019-05-11T15:19:35.272Z,5.93
2019-05-11T15:21:10.884Z,5.90
2019-05-11T15:22:48.948Z,6.03
2019-05-11T15:24:24.470Z,5.77
2019-05-11T15:26:00.396Z,6.43
2019-05-11T15:27:37.867Z,6.20
2019-05-11T15:29:13.782Z,5.92
2019-05-11T15:30:49.362Z,6.43
2019-05-11T15:32:28.391Z,6.40
2019-05-11T15:34:03.608Z,6.42
2019-05-11T15:35:39.808Z,6.50
2019-05-11T15:37:17.323Z,5.73
2019-05-11T15:38:53.032Z,6.67
2019-05-11T15:40:28.659Z,6.53
2019-05-11T15:42:10.366Z,7.10
2019-05-11T15:43:43.108Z,5.80
2019-05-11T15:45:20.096Z,6.40
2019-05-11T15:46:55.623Z,6.80
2019-05-11T15:48:31.513Z,6.10
2019-05-11T15:50:09.188Z,8.53
2019-05-11T15:51:45.378Z,7.53
2019-05-11T15:53:20.900Z,6.72
2019-05-11T15:54:58.546Z,7.30
2019-05-11T15:56:34.359Z,7.60
2019-05-11T15:58:10.252Z,6.93
2019-05-11T15:59:48.015Z,7.00
2019-05-11T16:01:23.456Z,7.17
2019-05-11T16:02:59.067Z,6.63
2019-05-11T16:04:35.257Z,6.70
2019-05-11T16:06:11.077Z,7.10
2019-05-11T16:07:49.299Z,6.65
2019-05-11T16:09:24.460Z,6.95
2019-05-11T16:11:00.386Z,6.47
2019-05-11T16:12:39.038Z,7.15
2019-05-11T16:14:15.276Z,7.03
2019-05-11T16:15:50.858Z,6.87
2019-05-11T16:17:27.091Z,7.23
2019-05-11T16:19:13.545Z,6.53
2019-05-11T16:20:40.302Z,6.30
2019-05-11T16:22:20.840Z,5.83
2019-05-11T16:23:54.129Z,5.70
2019-05-11T16:25:29.667Z,5.30
2019-05-11T16:27:05.653Z,5.30
2019-05-11T16:28:41.160Z,5.20
2019-05-11T16:30:21.119Z,5.37
2019-05-11T16:31:55.039Z,5.20
2019-05-11T16:33:31.955Z,5.53
2019-05-11T16:35:09.447Z,5.40
2019-05-11T16:36:47.888Z,6.12
2019-05-11T16:38:22.643Z,5.87
2019-05-11T16:39:58.563Z,5.40
2019-05-11T16:41:34.581Z,5.63
2019-05-11T16:43:10.478Z,5.50
2019-05-11T16:44:48.190Z,6.37
2019-05-11T16:46:23.601Z,6.53
2019-05-11T16:47:59.153Z,5.87
2019-05-11T16:49:35.310Z,5.83
2019-05-11T16:51:10.833Z,6.03
2019-05-11T16:52:48.131Z,6.42
2019-05-11T16:54:24.053Z,5.78
2019-05-11T16:55:59.940Z,7.07
2019-05-11T16:57:37.686Z,6.57
2019-05-11T16:59:13.086Z,6.80
2019-05-11T17:00:49.159Z,7.05
2019-05-11T17:02:27.360Z,6.47
2019-05-11T17:04:03.660Z,7.30
2019-05-11T17:05:39.946Z,7.17
2019-05-11T17:07:15.514Z,6.95
2019-05-11T17:08:51.400Z,7.30
2019-05-11T17:10:28.431Z,7.93
2019-05-11T17:12:04.468Z,7.43
2019-05-11T17:13:40.027Z,7.50
2019-05-11T17:15:18.217Z,7.53
2019-05-11T17:16:53.206Z,8.03
2019-05-11T17:18:29.187Z,8.00
2019-05-11T17:20:07.971Z,8.50
2019-05-11T17:21:44.076Z,7.75
2019-05-11T17:23:19.723Z,8.18
2019-05-11T17:24:55.706Z,8.57
2019-05-11T17:26:31.265Z,7.63
2019-05-11T17:28:10.106Z,7.70
2019-05-11T17:29:46.089Z,7.33
2019-05-11T17:31:22.129Z,7.87
2019-05-11T17:32:59.364Z,6.73
2019-05-11T17:34:35.358Z,6.93
2019-05-11T17:36:11.054Z,6.97
2019-05-11T17:37:48.434Z,6.70
2019-05-11T17:39:24.277Z,7.17
2019-05-11T17:41:00.313Z,6.80
2019-05-11T17:42:37.953Z,6.90
2019-05-11T17:44:14.048Z,6.80
2019-05-11T17:46:08.888Z,6.87
2019-05-11T17:47:58.534Z,6.10
2019-05-11T17:49:57.419Z,6.50
2019-05-11T17:51:25.312Z,5.62
2019-05-11T17:53:03.646Z,6.50
2019-05-11T17:54:39.693Z,6.93
2019-05-11T17:56:15.651Z,6.50
2019-05-11T17:57:53.887Z,6.65
2019-05-11T17:59:31.558Z,6.60
2019-05-11T18:01:09.359Z,6.63
2019-05-11T18:02:45.833Z,6.47
2019-05-11T18:04:21.715Z,6.47
2019-05-11T18:05:58.914Z,7.05
2019-05-11T18:07:35.335Z,6.63
2019-05-11T18:09:10.886Z,6.53
2019-05-11T18:10:48.006Z,6.90
2019-05-11T18:12:24.472Z,6.15
2019-05-11T18:14:00.364Z,6.40
2019-05-11T18:15:37.914Z,6.90
2019-05-11T18:17:13.797Z,6.60
2019-05-11T18:18:49.347Z,7.30
2019-05-11T18:20:28.678Z,7.15
2019-05-11T18:22:04.225Z,6.83
2019-05-11T18:23:40.130Z,7.30
2019-05-11T18:25:18.120Z,7.10
2019-05-11T18:26:53.435Z,6.70
2019-05-11T18:28:29.309Z,7.37
2019-05-11T18:30:08.716Z,7.17
2019-05-11T18:31:45.785Z,7.10
2019-05-11T18:33:21.675Z,6.83
2019-05-11T18:34:58.968Z,6.67
2019-05-11T18:36:34.993Z,7.20
2019-05-11T18:38:10.514Z,7.43
2019-05-11T18:39:48.313Z,7.33
2019-05-11T18:41:23.668Z,5.90
2019-05-11T18:42:59.537Z,5.65
2019-05-11T18:44:35.062Z,5.37
2019-05-11T18:46:10.976Z,5.83
2019-05-11T18:47:48.612Z,5.50
2019-05-11T18:49:24.362Z,5.58
2019-05-11T18:50:59.960Z,5.83
2019-05-11T18:52:35.926Z,5.03
2019-05-11T18:54:11.457Z,5.27
2019-05-11T18:55:48.655Z,5.00
2019-05-11T18:57:24.287Z,5.15
2019-05-11T18:59:00.195Z,4.53
2019-05-11T19:00:38.043Z,4.63
2019-05-11T19:02:13.318Z,4.13
2019-05-11T19:03:48.851Z,4.13
2019-05-11T19:05:25.423Z,4.05
2019-05-11T19:07:13.195Z,4.10
2019-05-11T19:08:38.662Z,4.20
2019-05-11T19:10:16.301Z,4.30
2019-05-11T19:11:52.596Z,4.50
2019-05-11T19:13:28.452Z,4.27
2019-05-11T19:15:07.798Z,4.20
2019-05-11T19:16:43.770Z,4.10
2019-05-11T19:18:19.662Z,4.20
2019-05-11T19:19:55.197Z,4.70
2019-05-11T19:21:31.114Z,4.55
2019-05-11T19:23:08.339Z,4.60
2019-05-11T19:24:44.487Z,4.37
2019-05-11T19:26:20.086Z,5.07
2019-05-11T19:27:58.785Z,4.75
2019-05-11T19:29:33.616Z,4.80
2019-05-11T19:31:11.301Z,4.93
2019-05-11T19:32:48.685Z,5.30
2019-05-11T19:34:24.787Z,4.90
2019-05-11T19:36:00.325Z,5.13
2019-05-11T19:37:38.349Z,5.00
2019-05-11T19:39:13.487Z,5.10
2019-05-11T19:40:49.385Z,5.27
2019-05-11T19:42:24.923Z,4.92
2019-05-11T19:44:00.924Z,4.80
2019-05-11T19:45:38.438Z,5.13
2019-05-11T19:47:14.114Z,4.73
2019-05-11T19:48:49.747Z,4.28
2019-05-11T19:50:25.641Z,4.53
2019-05-11T19:52:01.232Z,4.77
2019-05-11T19:53:38.602Z,4.33
2019-05-11T19:55:17.977Z,4.10
2019-05-11T19:56:54.158Z,4.15
2019-05-11T19:58:29.717Z,3.87
2019-05-11T20:00:08.919Z,4.20
2019-05-11T20:01:44.433Z,4.37
2019-05-11T20:03:20.358Z,3.90
2019-05-11T20:04:58.414Z,4.20
2019-05-11T20:06:34.545Z,4.30
2019-05-11T20:08:10.085Z,3.90
2019-05-11T20:09:47.205Z,3.80
2019-05-11T20:11:22.728Z,4.00
2019-05-11T20:12:59.024Z,3.40
2019-05-11T20:14:37.811Z,3.30
2019-05-11T20:16:13.362Z,3.60
2019-05-11T20:17:49.855Z,3.20
2019-05-11T20:19:27.856Z,3.27
2019-05-11T20:21:15.430Z,3.10
2019-05-11T20:22:40.613Z,3.30
2019-05-11T20:24:18.650Z,3.70
2019-05-11T20:25:54.918Z,3.65
2019-05-11T20:27:30.455Z,3.92
2019-05-11T20:29:08.098Z,4.13
2019-05-11T20:30:43.872Z,4.10
2019-05-11T20:32:19.775Z,4.30
2019-05-11T20:33:55.705Z,3.90
2019-05-11T20:35:32.615Z,4.12
2019-05-11T20:37:08.247Z,4.17
2019-05-11T20:38:44.435Z,3.90
2019-05-11T20:40:20.316Z,3.60
2019-05-11T20:41:58.086Z,3.50
2019-05-11T20:43:33.476Z,4.10
2019-05-11T20:45:09.623Z,4.40
2019-05-11T20:46:45.156Z,4.12
2019-05-11T20:48:21.062Z,4.23
2019-05-11T20:49:58.667Z,4.20
2019-05-11T20:51:37.175Z,3.90
2019-05-11T20:53:11.907Z,3.87
2019-05-11T20:54:49.079Z,4.03
2019-05-11T20:56:24.593Z,4.43
2019-05-11T20:58:00.494Z,4.23
2019-05-11T20:59:38.075Z,4.60
2019-05-11T21:01:14.139Z,4.10
2019-05-11T21:02:50.438Z,4.00
2019-05-11T21:04:28.200Z,4.00
2019-05-11T21:06:03.979Z,3.50
2019-05-11T21:07:40.077Z,4.00
2019-05-11T21:09:15.655Z,4.03
2019-05-11T21:10:51.989Z,4.70
2019-05-11T21:12:28.803Z,3.97
2019-05-11T21:14:07.810Z,4.15
2019-05-11T21:15:43.409Z,4.10
2019-05-11T21:17:20.845Z,4.22
2019-05-11T21:18:58.009Z,4.12
2019-05-11T21:20:35.079Z,3.90
2019-05-11T21:22:10.752Z,4.17
2019-05-11T21:23:48.758Z,4.50
2019-05-11T21:25:24.593Z,4.72
2019-05-11T21:27:00.541Z,4.50
2019-05-11T21:28:38.058Z,4.50